sensor_id;sensor_type;location;lat;lon;timestamp;temperature;humidity
71563;DHT22;59391;52.504;13.438;2023-06-22T00:02:01;25.70;50.90
71563;DHT22;59391;52.504;13.438;2023-06-22T00:04:30;25.60;51.00
71563;DHT22;59391;52.504;13.438;2023-06-22T00:07:22;25.60;51.00
71563;DHT22;59391;52.504;13.438;2023-06-22T00:09:53;25.60;50.90
71563;DHT22;59391;52.504;13.438;2023-06-22T00:12:19;25.50;51.10
71563;DHT22;59391;52.504;13.438;2023-06-22T00:14:44;25.50;51.20
71563;DHT22;59391;52.504;13.438;2023-06-22T00:17:10;25.50;51.30
71563;DHT22;59391;52.504;13.438;2023-06-22T00:19:39;25.40;51.50
71563;DHT22;59391;52.504;13.438;2023-06-22T00:22:14;25.40;51.40
71563;DHT22;59391;52.504;13.438;2023-06-22T00:24:48;25.40;51.60
71563;DHT22;59391;52.504;13.438;2023-06-22T00:27:23;25.30;51.70
71563;DHT22;59391;52.504;13.438;2023-06-22T00:29:52;25.30;51.70
71563;DHT22;59391;52.504;13.438;2023-06-22T00:32:18;25.20;51.90
71563;DHT22;59391;52.504;13.438;2023-06-22T00:34:51;25.20;52.00
71563;DHT22;59391;52.504;13.438;2023-06-22T00:37:25;25.10;52.40
71563;DHT22;59391;52.504;13.438;2023-06-22T00:39:59;25.10;52.30
71563;DHT22;59391;52.504;13.438;2023-06-22T00:42:32;25.10;52.40
71563;DHT22;59391;52.504;13.438;2023-06-22T00:45:01;25.10;52.40
71563;DHT22;59391;52.504;13.438;2023-06-22T00:47:34;25.00;52.50
71563;DHT22;59391;52.504;13.438;2023-06-22T00:50:06;25.00;52.70
71563;DHT22;59391;52.504;13.438;2023-06-22T00:52:35;25.00;52.80
71563;DHT22;59391;52.504;13.438;2023-06-22T00:55:02;24.90;52.90
71563;DHT22;59391;52.504;13.438;2023-06-22T00:57:28;24.90;53.00
71563;DHT22;59391;52.504;13.438;2023-06-22T00:59:57;24.90;53.00
71563;DHT22;59391;52.504;13.438;2023-06-22T01:02:23;24.80;53.20
71563;DHT22;59391;52.504;13.438;2023-06-22T01:04:48;24.80;53.40
71563;DHT22;59391;52.504;13.438;2023-06-22T01:07:33;24.80;53.40
71563;DHT22;59391;52.504;13.438;2023-06-22T01:10:07;24.80;53.60
71563;DHT22;59391;52.504;13.438;2023-06-22T01:12:44;24.70;53.80
71563;DHT22;59391;52.504;13.438;2023-06-22T01:15:25;24.70;53.80
71563;DHT22;59391;52.504;13.438;2023-06-22T01:17:56;24.70;54.00
71563;DHT22;59391;52.504;13.438;2023-06-22T01:20:25;24.60;54.10
71563;DHT22;59391;52.504;13.438;2023-06-22T01:29:15;24.60;54.50
71563;DHT22;59391;52.504;13.438;2023-06-22T01:31:44;24.50;54.60
71563;DHT22;59391;52.504;13.438;2023-06-22T01:34:11;24.50;54.90
71563;DHT22;59391;52.504;13.438;2023-06-22T01:36:38;24.40;55.00
71563;DHT22;59391;52.504;13.438;2023-06-22T01:39:05;24.40;55.00
71563;DHT22;59391;52.504;13.438;2023-06-22T01:41:37;24.40;55.20
71563;DHT22;59391;52.504;13.438;2023-06-22T01:44:06;24.40;55.40
71563;DHT22;59391;52.504;13.438;2023-06-22T01:46:34;24.40;55.50
71563;DHT22;59391;52.504;13.438;2023-06-22T01:49:04;24.30;55.70
71563;DHT22;59391;52.504;13.438;2023-06-22T01:51:30;24.30;55.80
71563;DHT22;59391;52.504;13.438;2023-06-22T01:53:56;24.30;55.90
71563;DHT22;59391;52.504;13.438;2023-06-22T01:56:22;24.30;56.10
71563;DHT22;59391;52.504;13.438;2023-06-22T01:59:11;24.20;56.20
71563;DHT22;59391;52.504;13.438;2023-06-22T02:01:51;24.20;56.50
71563;DHT22;59391;52.504;13.438;2023-06-22T02:04:30;24.20;56.70
71563;DHT22;59391;52.504;13.438;2023-06-22T02:07:14;24.10;56.70
71563;DHT22;59391;52.504;13.438;2023-06-22T02:09:45;24.10;56.70
71563;DHT22;59391;52.504;13.438;2023-06-22T02:12:18;24.10;56.90
71563;DHT22;59391;52.504;13.438;2023-06-22T02:14:51;24.10;57.10
71563;DHT22;59391;52.504;13.438;2023-06-22T02:17:20;24.10;57.10
71563;DHT22;59391;52.504;13.438;2023-06-22T02:19:46;24.10;57.30
71563;DHT22;59391;52.504;13.438;2023-06-22T02:22:14;24.10;57.40
71563;DHT22;59391;52.504;13.438;2023-06-22T02:24:40;24.10;57.40
71563;DHT22;59391;52.504;13.438;2023-06-22T02:27:06;24.10;57.40
71563;DHT22;59391;52.504;13.438;2023-06-22T02:29:36;24.10;57.70
71563;DHT22;59391;52.504;13.438;2023-06-22T02:32:02;24.10;57.80
71563;DHT22;59391;52.504;13.438;2023-06-22T02:34:33;24.10;57.80
71563;DHT22;59391;52.504;13.438;2023-06-22T02:36:59;24.10;57.90
71563;DHT22;59391;52.504;13.438;2023-06-22T02:39:29;24.10;58.10
71563;DHT22;59391;52.504;13.438;2023-06-22T02:41:57;24.10;58.20
71563;DHT22;59391;52.504;13.438;2023-06-22T02:44:25;24.10;58.20
71563;DHT22;59391;52.504;13.438;2023-06-22T02:46:51;24.10;58.30
71563;DHT22;59391;52.504;13.438;2023-06-22T02:49:17;24.10;58.30
71563;DHT22;59391;52.504;13.438;2023-06-22T02:51:46;24.10;58.40
71563;DHT22;59391;52.504;13.438;2023-06-22T02:54:13;24.10;58.50
71563;DHT22;59391;52.504;13.438;2023-06-22T02:56:39;24.10;58.50
71563;DHT22;59391;52.504;13.438;2023-06-22T02:59:09;24.00;58.60
71563;DHT22;59391;52.504;13.438;2023-06-22T03:01:41;24.00;58.70
71563;DHT22;59391;52.504;13.438;2023-06-22T03:04:07;24.00;58.70
71563;DHT22;59391;52.504;13.438;2023-06-22T03:06:36;24.00;59.00
71563;DHT22;59391;52.504;13.438;2023-06-22T03:09:06;24.00;59.00
71563;DHT22;59391;52.504;13.438;2023-06-22T03:11:37;24.00;58.90
71563;DHT22;59391;52.504;13.438;2023-06-22T03:14:03;24.00;59.00
71563;DHT22;59391;52.504;13.438;2023-06-22T03:16:29;24.00;58.90
71563;DHT22;59391;52.504;13.438;2023-06-22T03:18:54;24.00;58.60
71563;DHT22;59391;52.504;13.438;2023-06-22T03:21:23;24.00;58.40
71563;DHT22;59391;52.504;13.438;2023-06-22T03:23:49;23.90;58.20
71563;DHT22;59391;52.504;13.438;2023-06-22T03:26:18;23.90;58.00
71563;DHT22;59391;52.504;13.438;2023-06-22T03:28:46;23.90;57.50
71563;DHT22;59391;52.504;13.438;2023-06-22T03:31:26;23.90;57.30
71563;DHT22;59391;52.504;13.438;2023-06-22T03:34:02;23.90;57.40
71563;DHT22;59391;52.504;13.438;2023-06-22T03:36:28;23.90;57.00
71563;DHT22;59391;52.504;13.438;2023-06-22T03:38:53;23.90;56.90
71563;DHT22;59391;52.504;13.438;2023-06-22T03:41:19;23.90;57.10
71563;DHT22;59391;52.504;13.438;2023-06-22T03:43:50;23.90;57.00
71563;DHT22;59391;52.504;13.438;2023-06-22T03:46:16;23.90;56.90
71563;DHT22;59391;52.504;13.438;2023-06-22T03:48:41;24.00;57.00
71563;DHT22;59391;52.504;13.438;2023-06-22T03:51:07;24.00;56.90
71563;DHT22;59391;52.504;13.438;2023-06-22T03:53:36;24.00;56.80
71563;DHT22;59391;52.504;13.438;2023-06-22T03:56:05;24.00;56.50
71563;DHT22;59391;52.504;13.438;2023-06-22T03:58:31;24.00;56.40
71563;DHT22;59391;52.504;13.438;2023-06-22T04:00:58;24.00;56.30
71563;DHT22;59391;52.504;13.438;2023-06-22T04:03:29;24.00;56.30
71563;DHT22;59391;52.504;13.438;2023-06-22T04:05:55;24.00;56.00
71563;DHT22;59391;52.504;13.438;2023-06-22T04:08:21;24.00;56.10
71563;DHT22;59391;52.504;13.438;2023-06-22T04:10:46;24.00;56.00
71563;DHT22;59391;52.504;13.438;2023-06-22T04:13:14;24.00;56.00
71563;DHT22;59391;52.504;13.438;2023-06-22T04:15:40;24.00;55.70
71563;DHT22;59391;52.504;13.438;2023-06-22T04:18:05;24.00;55.70
71563;DHT22;59391;52.504;13.438;2023-06-22T04:20:32;24.00;55.80
71563;DHT22;59391;52.504;13.438;2023-06-22T04:22:57;24.00;55.60
71563;DHT22;59391;52.504;13.438;2023-06-22T04:25:23;24.00;55.00
71563;DHT22;59391;52.504;13.438;2023-06-22T04:27:49;24.00;54.60
71563;DHT22;59391;52.504;13.438;2023-06-22T04:30:15;24.00;54.60
71563;DHT22;59391;52.504;13.438;2023-06-22T04:32:44;24.00;54.60
71563;DHT22;59391;52.504;13.438;2023-06-22T04:35:10;24.00;54.60
71563;DHT22;59391;52.504;13.438;2023-06-22T04:37:37;24.00;54.60
71563;DHT22;59391;52.504;13.438;2023-06-22T04:40:04;23.90;54.80
71563;DHT22;59391;52.504;13.438;2023-06-22T04:42:34;23.90;55.00
71563;DHT22;59391;52.504;13.438;2023-06-22T04:45:02;24.00;55.00
71563;DHT22;59391;52.504;13.438;2023-06-22T04:47:28;24.00;54.60
71563;DHT22;59391;52.504;13.438;2023-06-22T04:49:53;23.90;54.50
71563;DHT22;59391;52.504;13.438;2023-06-22T04:52:19;24.00;54.50
71563;DHT22;59391;52.504;13.438;2023-06-22T04:54:45;24.00;54.60
71563;DHT22;59391;52.504;13.438;2023-06-22T04:57:20;24.00;54.70
71563;DHT22;59391;52.504;13.438;2023-06-22T04:59:49;24.00;54.60
71563;DHT22;59391;52.504;13.438;2023-06-22T05:02:14;24.00;54.30
71563;DHT22;59391;52.504;13.438;2023-06-22T05:04:43;24.00;54.20
71563;DHT22;59391;52.504;13.438;2023-06-22T05:07:09;24.00;53.90
71563;DHT22;59391;52.504;13.438;2023-06-22T05:09:35;24.10;53.70
71563;DHT22;59391;52.504;13.438;2023-06-22T05:13:01;24.10;53.90
71563;DHT22;59391;52.504;13.438;2023-06-22T05:26:23;24.40;53.40
71563;DHT22;59391;52.504;13.438;2023-06-22T05:29:46;24.40;53.40
71563;DHT22;59391;52.504;13.438;2023-06-22T05:32:28;24.40;53.20
71563;DHT22;59391;52.504;13.438;2023-06-22T05:34:56;24.50;53.10
71563;DHT22;59391;52.504;13.438;2023-06-22T05:37:51;24.50;53.20
71563;DHT22;59391;52.504;13.438;2023-06-22T05:40:17;24.60;53.20
71563;DHT22;59391;52.504;13.438;2023-06-22T05:42:42;24.60;53.20
71563;DHT22;59391;52.504;13.438;2023-06-22T06:08:23;24.80;51.50
71563;DHT22;59391;52.504;13.438;2023-06-22T06:10:49;24.90;51.70
71563;DHT22;59391;52.504;13.438;2023-06-22T06:13:15;24.90;51.50
71563;DHT22;59391;52.504;13.438;2023-06-22T06:21:33;25.00;51.90
71563;DHT22;59391;52.504;13.438;2023-06-22T06:23:59;25.10;51.40
71563;DHT22;59391;52.504;13.438;2023-06-22T06:26:45;25.10;51.20
71563;DHT22;59391;52.504;13.438;2023-06-22T06:29:25;25.20;51.10
71563;DHT22;59391;52.504;13.438;2023-06-22T06:32:18;25.20;50.40
71563;DHT22;59391;52.504;13.438;2023-06-22T06:37:58;25.30;50.30
71563;DHT22;59391;52.504;13.438;2023-06-22T06:43:16;25.40;50.30
71563;DHT22;59391;52.504;13.438;2023-06-22T06:45:42;25.50;50.20
71563;DHT22;59391;52.504;13.438;2023-06-22T06:48:08;25.50;49.70
71563;DHT22;59391;52.504;13.438;2023-06-22T06:50:43;25.50;49.70
71563;DHT22;59391;52.504;13.438;2023-06-22T06:53:09;25.60;49.70
71563;DHT22;59391;52.504;13.438;2023-06-22T06:55:35;25.60;49.70
71563;DHT22;59391;52.504;13.438;2023-06-22T06:58:04;25.60;49.40
71563;DHT22;59391;52.504;13.438;2023-06-22T07:00:33;25.70;49.30
71563;DHT22;59391;52.504;13.438;2023-06-22T07:02:58;25.70;49.40
71563;DHT22;59391;52.504;13.438;2023-06-22T07:05:24;25.80;48.90
71563;DHT22;59391;52.504;13.438;2023-06-22T07:07:50;25.80;48.30
71563;DHT22;59391;52.504;13.438;2023-06-22T07:10:24;25.90;48.30
71563;DHT22;59391;52.504;13.438;2023-06-22T07:24:52;26.20;47.60
71563;DHT22;59391;52.504;13.438;2023-06-22T07:42:19;26.70;46.10
71563;DHT22;59391;52.504;13.438;2023-06-22T08:14:55;27.90;41.80
71563;DHT22;59391;52.504;13.438;2023-06-22T08:28:22;28.00;39.50
71563;DHT22;59391;52.504;13.438;2023-06-22T08:34:54;28.10;39.70
71563;DHT22;59391;52.504;13.438;2023-06-22T08:41:47;28.20;40.20
71563;DHT22;59391;52.504;13.438;2023-06-22T08:44:42;28.30;39.70
71563;DHT22;59391;52.504;13.438;2023-06-22T08:47:38;28.40;39.70
71563;DHT22;59391;52.504;13.438;2023-06-22T08:50:10;28.40;39.70
71563;DHT22;59391;52.504;13.438;2023-06-22T08:52:38;28.50;39.20
71563;DHT22;59391;52.504;13.438;2023-06-22T08:55:20;28.50;39.10
71563;DHT22;59391;52.504;13.438;2023-06-22T08:58:10;28.50;39.00
71563;DHT22;59391;52.504;13.438;2023-06-22T09:00:36;28.60;38.70
71563;DHT22;59391;52.504;13.438;2023-06-22T09:03:02;28.60;38.70
71563;DHT22;59391;52.504;13.438;2023-06-22T09:05:28;28.60;39.10
71563;DHT22;59391;52.504;13.438;2023-06-22T09:07:57;28.70;39.40
71563;DHT22;59391;52.504;13.438;2023-06-22T09:10:37;28.90;39.50
71563;DHT22;59391;52.504;13.438;2023-06-22T09:16:21;29.20;38.90
71563;DHT22;59391;52.504;13.438;2023-06-22T09:19:05;29.50;38.60
71563;DHT22;59391;52.504;13.438;2023-06-22T09:22:00;29.70;37.80
71563;DHT22;59391;52.504;13.438;2023-06-22T09:24:45;29.80;37.60
71563;DHT22;59391;52.504;13.438;2023-06-22T09:27:16;30.00;37.50
71563;DHT22;59391;52.504;13.438;2023-06-22T09:29:42;30.10;37.50
71563;DHT22;59391;52.504;13.438;2023-06-22T09:32:59;30.20;36.10
71563;DHT22;59391;52.504;13.438;2023-06-22T09:38:39;30.40;35.80
71563;DHT22;59391;52.504;13.438;2023-06-22T09:41:32;30.50;35.80
71563;DHT22;59391;52.504;13.438;2023-06-22T09:43:58;30.60;36.10
71563;DHT22;59391;52.504;13.438;2023-06-22T09:52:57;30.80;35.90
71563;DHT22;59391;52.504;13.438;2023-06-22T09:55:34;30.80;36.10
71563;DHT22;59391;52.504;13.438;2023-06-22T09:58:10;30.90;36.00
71563;DHT22;59391;52.504;13.438;2023-06-22T10:00:46;31.00;36.00
71563;DHT22;59391;52.504;13.438;2023-06-22T10:09:28;31.10;36.20
71563;DHT22;59391;52.504;13.438;2023-06-22T10:12:01;31.10;36.10
71563;DHT22;59391;52.504;13.438;2023-06-22T10:14:27;31.10;36.00
71563;DHT22;59391;52.504;13.438;2023-06-22T10:17:02;31.20;36.00
71563;DHT22;59391;52.504;13.438;2023-06-22T10:19:42;31.30;35.90
71563;DHT22;59391;52.504;13.438;2023-06-22T10:22:08;31.40;36.10
71563;DHT22;59391;52.504;13.438;2023-06-22T10:24:33;31.50;35.80
71563;DHT22;59391;52.504;13.438;2023-06-22T10:27:04;31.60;35.80
71563;DHT22;59391;52.504;13.438;2023-06-22T10:29:29;31.80;36.00
71563;DHT22;59391;52.504;13.438;2023-06-22T10:31:55;31.90;35.90
71563;DHT22;59391;52.504;13.438;2023-06-22T10:34:21;32.00;35.70
71563;DHT22;59391;52.504;13.438;2023-06-22T10:36:46;32.20;35.50
71563;DHT22;59391;52.504;13.438;2023-06-22T10:39:14;32.40;35.30
71563;DHT22;59391;52.504;13.438;2023-06-22T10:41:40;32.50;34.80
71563;DHT22;59391;52.504;13.438;2023-06-22T10:44:06;32.70;34.60
71563;DHT22;59391;52.504;13.438;2023-06-22T10:46:31;32.80;35.30
71563;DHT22;59391;52.504;13.438;2023-06-22T10:48:57;32.80;34.00
71563;DHT22;59391;52.504;13.438;2023-06-22T10:51:24;32.90;34.00
71563;DHT22;59391;52.504;13.438;2023-06-22T10:53:51;33.00;34.00
71563;DHT22;59391;52.504;13.438;2023-06-22T10:56:17;33.20;33.70
71563;DHT22;59391;52.504;13.438;2023-06-22T10:58:45;33.40;33.30
71563;DHT22;59391;52.504;13.438;2023-06-22T11:01:10;33.60;32.80
71563;DHT22;59391;52.504;13.438;2023-06-22T11:03:36;33.80;32.20
71563;DHT22;59391;52.504;13.438;2023-06-22T11:06:02;34.00;32.30
71563;DHT22;59391;52.504;13.438;2023-06-22T11:08:28;34.10;31.60
71563;DHT22;59391;52.504;13.438;2023-06-22T11:10:53;34.20;31.60
71563;DHT22;59391;52.504;13.438;2023-06-22T11:13:19;34.40;32.10
71563;DHT22;59391;52.504;13.438;2023-06-22T11:15:45;34.50;31.20
71563;DHT22;59391;52.504;13.438;2023-06-22T11:18:10;34.60;31.00
71563;DHT22;59391;52.504;13.438;2023-06-22T11:20:36;34.70;30.60
71563;DHT22;59391;52.504;13.438;2023-06-22T11:23:04;34.70;30.50
71563;DHT22;59391;52.504;13.438;2023-06-22T11:25:31;34.70;30.40
71563;DHT22;59391;52.504;13.438;2023-06-22T11:27:57;34.60;30.70
71563;DHT22;59391;52.504;13.438;2023-06-22T11:30:23;34.60;30.00
71563;DHT22;59391;52.504;13.438;2023-06-22T11:32:48;34.60;30.70
71563;DHT22;59391;52.504;13.438;2023-06-22T11:35:14;34.60;30.90
71563;DHT22;59391;52.504;13.438;2023-06-22T11:37:40;34.60;30.10
71563;DHT22;59391;52.504;13.438;2023-06-22T11:40:06;34.60;30.40
71563;DHT22;59391;52.504;13.438;2023-06-22T11:42:34;34.60;30.20
71563;DHT22;59391;52.504;13.438;2023-06-22T11:45:00;34.60;30.50
71563;DHT22;59391;52.504;13.438;2023-06-22T11:47:27;34.70;30.60
71563;DHT22;59391;52.504;13.438;2023-06-22T11:49:52;34.80;30.00
71563;DHT22;59391;52.504;13.438;2023-06-22T11:52:18;34.90;30.50
71563;DHT22;59391;52.504;13.438;2023-06-22T11:54:44;35.00;30.40
71563;DHT22;59391;52.504;13.438;2023-06-22T11:57:11;35.10;29.70
71563;DHT22;59391;52.504;13.438;2023-06-22T11:59:36;35.30;29.20
71563;DHT22;59391;52.504;13.438;2023-06-22T12:02:02;35.40;29.00
71563;DHT22;59391;52.504;13.438;2023-06-22T12:04:29;35.50;29.10
71563;DHT22;59391;52.504;13.438;2023-06-22T12:06:55;35.60;28.80
71563;DHT22;59391;52.504;13.438;2023-06-22T12:09:20;35.80;28.80
71563;DHT22;59391;52.504;13.438;2023-06-22T12:11:46;35.90;28.60
71563;DHT22;59391;52.504;13.438;2023-06-22T12:14:11;36.00;28.30
71563;DHT22;59391;52.504;13.438;2023-06-22T12:16:37;36.10;28.00
71563;DHT22;59391;52.504;13.438;2023-06-22T12:19:03;36.00;28.20
71563;DHT22;59391;52.504;13.438;2023-06-22T12:21:28;36.00;28.40
71563;DHT22;59391;52.504;13.438;2023-06-22T12:23:54;36.00;28.20
71563;DHT22;59391;52.504;13.438;2023-06-22T12:26:20;35.90;28.80
71563;DHT22;59391;52.504;13.438;2023-06-22T12:28:47;35.90;28.40
71563;DHT22;59391;52.504;13.438;2023-06-22T12:31:14;35.90;28.30
71563;DHT22;59391;52.504;13.438;2023-06-22T12:33:39;35.90;28.30
71563;DHT22;59391;52.504;13.438;2023-06-22T12:36:05;35.90;28.10
71563;DHT22;59391;52.504;13.438;2023-06-22T12:38:31;35.80;28.20
71563;DHT22;59391;52.504;13.438;2023-06-22T12:40:56;35.80;28.70
71563;DHT22;59391;52.504;13.438;2023-06-22T12:43:22;35.80;28.80
71563;DHT22;59391;52.504;13.438;2023-06-22T12:45:47;35.90;28.40
71563;DHT22;59391;52.504;13.438;2023-06-22T12:48:13;36.00;28.00
71563;DHT22;59391;52.504;13.438;2023-06-22T12:50:39;36.00;28.10
71563;DHT22;59391;52.504;13.438;2023-06-22T12:53:04;35.90;28.90
71563;DHT22;59391;52.504;13.438;2023-06-22T12:55:31;35.90;28.40
71563;DHT22;59391;52.504;13.438;2023-06-22T12:57:57;35.90;28.40
71563;DHT22;59391;52.504;13.438;2023-06-22T13:00:23;35.90;28.90
71563;DHT22;59391;52.504;13.438;2023-06-22T13:02:49;35.90;28.70
71563;DHT22;59391;52.504;13.438;2023-06-22T13:05:14;35.80;28.90
71563;DHT22;59391;52.504;13.438;2023-06-22T13:07:40;35.80;28.40
71563;DHT22;59391;52.504;13.438;2023-06-22T13:10:08;35.70;29.00
71563;DHT22;59391;52.504;13.438;2023-06-22T13:12:34;35.60;29.10
71563;DHT22;59391;52.504;13.438;2023-06-22T13:14:59;35.60;28.70
71563;DHT22;59391;52.504;13.438;2023-06-22T13:17:25;35.50;29.20
71563;DHT22;59391;52.504;13.438;2023-06-22T13:19:51;35.40;29.30
71563;DHT22;59391;52.504;13.438;2023-06-22T13:25:05;35.20;30.00
71563;DHT22;59391;52.504;13.438;2023-06-22T13:27:32;35.20;30.00
71563;DHT22;59391;52.504;13.438;2023-06-22T13:29:57;35.20;29.80
71563;DHT22;59391;52.504;13.438;2023-06-22T13:32:23;35.10;29.90
71563;DHT22;59391;52.504;13.438;2023-06-22T13:34:48;35.00;29.70
71563;DHT22;59391;52.504;13.438;2023-06-22T13:37:14;35.00;30.30
71563;DHT22;59391;52.504;13.438;2023-06-22T13:39:40;34.90;30.10
71563;DHT22;59391;52.504;13.438;2023-06-22T13:42:06;34.90;29.90
71563;DHT22;59391;52.504;13.438;2023-06-22T13:44:32;34.80;30.40
71563;DHT22;59391;52.504;13.438;2023-06-22T13:46:58;34.80;29.90
71563;DHT22;59391;52.504;13.438;2023-06-22T13:49:23;34.70;29.80
71563;DHT22;59391;52.504;13.438;2023-06-22T13:51:49;34.60;30.20
71563;DHT22;59391;52.504;13.438;2023-06-22T13:54:16;34.60;30.30
71563;DHT22;59391;52.504;13.438;2023-06-22T13:56:42;34.50;30.50
71563;DHT22;59391;52.504;13.438;2023-06-22T13:59:08;34.50;30.80
71563;DHT22;59391;52.504;13.438;2023-06-22T14:01:35;34.40;30.80
71563;DHT22;59391;52.504;13.438;2023-06-22T14:04:02;34.30;30.70
71563;DHT22;59391;52.504;13.438;2023-06-22T14:06:28;34.30;30.50
71563;DHT22;59391;52.504;13.438;2023-06-22T14:08:53;34.30;30.60
71563;DHT22;59391;52.504;13.438;2023-06-22T14:11:19;34.20;30.60
71563;DHT22;59391;52.504;13.438;2023-06-22T14:13:44;34.20;31.20
71563;DHT22;59391;52.504;13.438;2023-06-22T14:16:10;34.10;31.40
71563;DHT22;59391;52.504;13.438;2023-06-22T14:18:36;34.10;30.90
71563;DHT22;59391;52.504;13.438;2023-06-22T14:21:02;34.10;30.70
71563;DHT22;59391;52.504;13.438;2023-06-22T14:23:27;34.10;30.60
71563;DHT22;59391;52.504;13.438;2023-06-22T14:25:53;34.00;30.70
71563;DHT22;59391;52.504;13.438;2023-06-22T14:28:18;33.90;30.70
71563;DHT22;59391;52.504;13.438;2023-06-22T14:30:44;33.80;31.20
71563;DHT22;59391;52.504;13.438;2023-06-22T14:33:10;33.80;31.60
71563;DHT22;59391;52.504;13.438;2023-06-22T14:35:38;33.80;31.60
71563;DHT22;59391;52.504;13.438;2023-06-22T14:38:04;33.70;31.40
71563;DHT22;59391;52.504;13.438;2023-06-22T14:40:30;33.80;31.80
71563;DHT22;59391;52.504;13.438;2023-06-22T14:42:55;33.80;31.80
71563;DHT22;59391;52.504;13.438;2023-06-22T14:45:23;33.80;31.50
71563;DHT22;59391;52.504;13.438;2023-06-22T14:47:49;33.90;31.40
71563;DHT22;59391;52.504;13.438;2023-06-22T14:50:15;33.90;31.90
71563;DHT22;59391;52.504;13.438;2023-06-22T14:52:41;33.90;31.30
71563;DHT22;59391;52.504;13.438;2023-06-22T14:55:07;33.90;31.10
71563;DHT22;59391;52.504;13.438;2023-06-22T14:57:33;33.90;31.40
71563;DHT22;59391;52.504;13.438;2023-06-22T14:59:59;33.90;31.10
71563;DHT22;59391;52.504;13.438;2023-06-22T15:02:26;33.80;31.00
71563;DHT22;59391;52.504;13.438;2023-06-22T15:04:52;33.80;30.90
71563;DHT22;59391;52.504;13.438;2023-06-22T15:07:18;33.70;31.10
71563;DHT22;59391;52.504;13.438;2023-06-22T15:09:45;33.70;31.20
71563;DHT22;59391;52.504;13.438;2023-06-22T15:12:11;33.60;31.60
71563;DHT22;59391;52.504;13.438;2023-06-22T15:14:39;33.60;31.50
71563;DHT22;59391;52.504;13.438;2023-06-22T15:17:07;33.60;31.30
71563;DHT22;59391;52.504;13.438;2023-06-22T15:19:37;33.60;31.40
71563;DHT22;59391;52.504;13.438;2023-06-22T15:22:06;33.60;31.50
71563;DHT22;59391;52.504;13.438;2023-06-22T15:24:33;33.60;31.50
71563;DHT22;59391;52.504;13.438;2023-06-22T15:26:59;33.50;32.30
71563;DHT22;59391;52.504;13.438;2023-06-22T15:29:26;33.50;32.20
71563;DHT22;59391;52.504;13.438;2023-06-22T15:31:52;33.50;32.00
71563;DHT22;59391;52.504;13.438;2023-06-22T15:34:18;33.50;32.60
71563;DHT22;59391;52.504;13.438;2023-06-22T15:36:43;33.60;31.90
71563;DHT22;59391;52.504;13.438;2023-06-22T15:39:10;33.60;31.70
71563;DHT22;59391;52.504;13.438;2023-06-22T15:41:35;33.60;31.70
71563;DHT22;59391;52.504;13.438;2023-06-22T15:44:05;33.50;31.80
71563;DHT22;59391;52.504;13.438;2023-06-22T15:46:30;33.50;31.90
71563;DHT22;59391;52.504;13.438;2023-06-22T15:48:56;33.50;32.20
71563;DHT22;59391;52.504;13.438;2023-06-22T15:51:21;33.50;32.60
71563;DHT22;59391;52.504;13.438;2023-06-22T15:53:47;33.50;32.30
71563;DHT22;59391;52.504;13.438;2023-06-22T15:56:13;33.50;32.30
71563;DHT22;59391;52.504;13.438;2023-06-22T15:58:38;33.60;31.90
71563;DHT22;59391;52.504;13.438;2023-06-22T16:01:05;33.50;32.00
71563;DHT22;59391;52.504;13.438;2023-06-22T16:03:31;33.50;32.20
71563;DHT22;59391;52.504;13.438;2023-06-22T16:05:57;33.40;32.20
71563;DHT22;59391;52.504;13.438;2023-06-22T16:08:23;33.40;32.80
71563;DHT22;59391;52.504;13.438;2023-06-22T16:10:51;33.30;32.70
71563;DHT22;59391;52.504;13.438;2023-06-22T16:13:17;33.30;32.70
71563;DHT22;59391;52.504;13.438;2023-06-22T16:15:43;33.30;32.90
71563;DHT22;59391;52.504;13.438;2023-06-22T16:18:09;33.20;33.30
71563;DHT22;59391;52.504;13.438;2023-06-22T16:20:34;33.20;33.10
71563;DHT22;59391;52.504;13.438;2023-06-22T16:23:00;33.20;32.80
71563;DHT22;59391;52.504;13.438;2023-06-22T16:25:26;33.10;32.60
71563;DHT22;59391;52.504;13.438;2023-06-22T16:27:53;33.10;32.90
71563;DHT22;59391;52.504;13.438;2023-06-22T16:30:19;33.10;33.00
71563;DHT22;59391;52.504;13.438;2023-06-22T16:32:56;33.00;32.90
71563;DHT22;59391;52.504;13.438;2023-06-22T16:35:25;32.90;32.90
71563;DHT22;59391;52.504;13.438;2023-06-22T16:37:53;32.90;33.30
71563;DHT22;59391;52.504;13.438;2023-06-22T16:40:20;32.90;33.00
71563;DHT22;59391;52.504;13.438;2023-06-22T16:42:47;32.80;33.10
71563;DHT22;59391;52.504;13.438;2023-06-22T16:45:14;32.80;33.40
71563;DHT22;59391;52.504;13.438;2023-06-22T16:47:45;32.80;33.70
71563;DHT22;59391;52.504;13.438;2023-06-22T16:50:12;32.80;33.40
71563;DHT22;59391;52.504;13.438;2023-06-22T16:52:38;32.70;33.20
71563;DHT22;59391;52.504;13.438;2023-06-22T16:55:07;32.70;33.40
71563;DHT22;59391;52.504;13.438;2023-06-22T16:57:35;32.60;33.80
71563;DHT22;59391;52.504;13.438;2023-06-22T17:00:02;32.60;33.70
71563;DHT22;59391;52.504;13.438;2023-06-22T17:02:50;32.50;33.80
71563;DHT22;59391;52.504;13.438;2023-06-22T17:05:17;32.50;34.00
71563;DHT22;59391;52.504;13.438;2023-06-22T17:07:58;32.40;33.90
71563;DHT22;59391;52.504;13.438;2023-06-22T17:10:28;32.40;33.90
71563;DHT22;59391;52.504;13.438;2023-06-22T17:12:53;32.30;33.90
71563;DHT22;59391;52.504;13.438;2023-06-22T17:15:22;32.30;34.10
71563;DHT22;59391;52.504;13.438;2023-06-22T17:17:48;32.20;34.20
71563;DHT22;59391;52.504;13.438;2023-06-22T17:20:14;32.20;34.10
71563;DHT22;59391;52.504;13.438;2023-06-22T17:22:40;32.10;34.40
71563;DHT22;59391;52.504;13.438;2023-06-22T17:25:12;32.10;34.40
71563;DHT22;59391;52.504;13.438;2023-06-22T17:27:47;32.10;34.60
71563;DHT22;59391;52.504;13.438;2023-06-22T17:30:16;32.00;34.40
71563;DHT22;59391;52.504;13.438;2023-06-22T17:32:47;32.00;34.50
71563;DHT22;59391;52.504;13.438;2023-06-22T17:35:13;31.90;34.50
71563;DHT22;59391;52.504;13.438;2023-06-22T17:37:48;31.80;34.90
71563;DHT22;59391;52.504;13.438;2023-06-22T17:40:19;31.70;35.00
71563;DHT22;59391;52.504;13.438;2023-06-22T17:42:48;31.70;35.00
71563;DHT22;59391;52.504;13.438;2023-06-22T17:45:19;31.60;35.10
71563;DHT22;59391;52.504;13.438;2023-06-22T17:47:47;31.60;35.20
71563;DHT22;59391;52.504;13.438;2023-06-22T17:50:14;31.50;35.20
71563;DHT22;59391;52.504;13.438;2023-06-22T17:52:40;31.50;35.40
71563;DHT22;59391;52.504;13.438;2023-06-22T17:55:09;31.40;35.50
71563;DHT22;59391;52.504;13.438;2023-06-22T17:57:36;31.40;35.60